createdAt,value
2023-05-02T00:00:04.194Z,13.90
2023-05-02T00:02:31.694Z,13.90
2023-05-02T00:04:59.249Z,13.80
2023-05-02T00:07:26.971Z,13.80
2023-05-02T00:09:55.294Z,13.80
2023-05-02T00:12:23.227Z,13.80
2023-05-02T00:14:50.593Z,13.70
2023-05-02T00:17:19.904Z,13.70
2023-05-02T00:19:47.768Z,13.60
2023-05-02T00:22:15.166Z,13.70
2023-05-02T00:24:42.526Z,13.60
2023-05-02T00:27:10.195Z,13.60
2023-05-02T00:29:37.559Z,13.60
2023-05-02T00:32:06.653Z,13.60
2023-05-02T00:34:34.172Z,13.50
2023-05-02T00:37:01.726Z,13.50
2023-05-02T00:39:29.601Z,13.40
2023-05-02T00:42:00.796Z,13.40
2023-05-02T00:44:28.845Z,13.40
2023-05-02T00:46:57.188Z,13.40
2023-05-02T00:49:24.876Z,13.50
2023-05-02T00:51:54.500Z,13.40
2023-05-02T00:54:22.068Z,13.40
2023-05-02T00:56:49.387Z,13.40
2023-05-02T00:59:18.028Z,13.40
2023-05-02T01:02:03.893Z,13.20
2023-05-02T01:04:50.529Z,13.30
2023-05-02T01:07:54.834Z,13.30
2023-05-02T01:10:34.674Z,13.30
2023-05-02T01:13:18.487Z,13.30
2023-05-02T01:15:48.400Z,13.20
2023-05-02T01:18:18.621Z,13.20
2023-05-02T01:20:48.238Z,13.20
2023-05-02T01:23:47.415Z,13.10
2023-05-02T01:26:41.636Z,13.10
2023-05-02T01:29:10.052Z,13.00
2023-05-02T01:31:42.186Z,12.90
2023-05-02T01:34:11.272Z,12.90
2023-05-02T01:36:45.182Z,12.90
2023-05-02T01:39:19.615Z,12.90
2023-05-02T01:41:50.557Z,12.80
2023-05-02T01:44:23.097Z,12.90
2023-05-02T01:46:53.365Z,12.90
2023-05-02T01:49:22.464Z,12.90
2023-05-02T01:51:51.970Z,12.90
2023-05-02T01:54:23.124Z,12.90
2023-05-02T01:56:52.232Z,12.90
2023-05-02T01:59:22.727Z,13.20
2023-05-02T02:01:52.722Z,12.90
2023-05-02T02:04:22.180Z,12.90
2023-05-02T02:15:29.055Z,13.10
2023-05-02T02:18:11.312Z,13.00
2023-05-02T02:20:43.140Z,13.00
2023-05-02T02:23:11.085Z,13.30
2023-05-02T02:25:39.080Z,13.00
2023-05-02T02:28:07.736Z,12.80
2023-05-02T02:30:35.200Z,13.00
2023-05-02T02:33:02.695Z,13.10
2023-05-02T02:35:37.638Z,13.10
2023-05-02T02:38:28.161Z,13.10
2023-05-02T02:41:12.549Z,13.10
2023-05-02T02:43:58.601Z,13.10
2023-05-02T02:46:34.824Z,13.10
2023-05-02T02:49:27.305Z,13.00
2023-05-02T02:51:59.014Z,13.00
2023-05-02T02:54:39.972Z,13.00
2023-05-02T02:57:46.437Z,13.40
2023-05-02T03:00:21.358Z,13.10
2023-05-02T03:02:49.117Z,13.10
2023-05-02T03:05:17.326Z,13.00
2023-05-02T03:07:44.829Z,13.30
2023-05-02T03:10:12.254Z,13.10
2023-05-02T03:12:43.666Z,13.60
2023-05-02T03:15:29.692Z,13.10
2023-05-02T03:17:57.347Z,13.10
2023-05-02T03:20:24.656Z,13.10
2023-05-02T03:22:52.534Z,13.10
2023-05-02T03:25:19.888Z,13.10
2023-05-02T03:27:47.192Z,13.10
2023-05-02T03:30:14.576Z,13.10
2023-05-02T03:32:42.192Z,13.10
2023-05-02T03:35:09.622Z,13.10
2023-05-02T03:37:36.932Z,13.10
2023-05-02T03:40:04.704Z,13.10
2023-05-02T03:42:32.128Z,13.10
2023-05-02T03:44:59.537Z,13.00
2023-05-02T03:47:27.007Z,13.10
2023-05-02T03:49:54.622Z,13.00
2023-05-02T03:52:21.939Z,13.00
2023-05-02T03:54:49.944Z,13.10
2023-05-02T03:57:17.524Z,13.00
2023-05-02T03:59:47.875Z,13.10
2023-05-02T04:02:16.289Z,13.10
2023-05-02T04:04:43.962Z,13.10
2023-05-02T04:07:18.141Z,13.10
2023-05-02T04:09:46.107Z,13.10
2023-05-02T04:12:15.523Z,13.00
2023-05-02T04:14:43.419Z,13.00
2023-05-02T04:17:10.956Z,13.00
2023-05-02T04:19:38.353Z,13.00
2023-05-02T04:22:05.741Z,13.00
2023-05-02T04:24:33.328Z,13.00
2023-05-02T04:27:01.497Z,13.00
2023-05-02T04:29:28.834Z,12.90
2023-05-02T04:31:56.416Z,12.90
2023-05-02T04:34:23.808Z,12.80
2023-05-02T04:36:51.077Z,12.80
2023-05-02T04:39:18.678Z,12.50
2023-05-02T04:41:47.069Z,12.80
2023-05-02T04:44:14.396Z,12.80
2023-05-02T04:46:41.776Z,12.70
2023-05-02T04:49:10.330Z,12.60
2023-05-02T04:51:37.699Z,12.70
2023-05-02T04:54:05.083Z,12.60
2023-05-02T04:56:32.761Z,12.60
2023-05-02T04:59:00.582Z,12.60
2023-05-02T05:01:28.213Z,12.60
2023-05-02T05:03:56.648Z,12.60
2023-05-02T05:06:24.699Z,12.70
2023-05-02T05:08:52.352Z,12.60
2023-05-02T05:11:19.696Z,12.50
2023-05-02T05:13:47.057Z,12.50
2023-05-02T05:16:14.946Z,12.50
2023-05-02T05:18:42.566Z,12.50
2023-05-02T05:21:11.156Z,12.50
2023-05-02T05:23:38.924Z,12.50
2023-05-02T05:26:13.135Z,12.50
2023-05-02T05:28:41.545Z,12.40
2023-05-02T05:31:14.013Z,11.90
2023-05-02T05:33:43.120Z,12.40
2023-05-02T05:36:12.863Z,12.40
2023-05-02T05:38:40.662Z,12.40
2023-05-02T05:41:08.641Z,12.50
2023-05-02T05:43:37.936Z,12.40
2023-05-02T05:46:06.076Z,12.50
2023-05-02T05:48:33.493Z,12.50
2023-05-02T05:51:05.695Z,12.50
2023-05-02T05:53:34.277Z,12.50
2023-05-02T05:56:09.945Z,13.00
2023-05-02T05:58:38.198Z,12.50
2023-05-02T06:01:05.979Z,12.50
2023-05-02T06:03:33.696Z,12.50
2023-05-02T06:06:01.403Z,12.50
2023-05-02T06:08:28.725Z,12.50
2023-05-02T06:10:56.140Z,12.50
2023-05-02T06:13:23.512Z,12.50
2023-05-02T06:15:51.188Z,12.50
2023-05-02T06:18:18.583Z,12.50
2023-05-02T06:20:46.088Z,12.60
2023-05-02T06:23:13.395Z,12.80
2023-05-02T06:25:42.049Z,12.50
2023-05-02T06:28:09.655Z,12.50
2023-05-02T06:30:36.996Z,12.60
2023-05-02T06:33:05.159Z,12.60
2023-05-02T06:35:32.529Z,12.60
2023-05-02T06:38:00.036Z,12.60
2023-05-02T06:40:27.511Z,12.60
2023-05-02T06:42:55.084Z,12.60
2023-05-02T06:45:22.417Z,12.50
2023-05-02T06:47:50.029Z,12.50
2023-05-02T06:50:17.428Z,12.50
2023-05-02T06:52:44.756Z,12.60
2023-05-02T06:55:12.271Z,12.60
2023-05-02T06:57:39.733Z,12.70
2023-05-02T07:00:07.643Z,12.80
2023-05-02T07:02:35.029Z,12.80
2023-05-02T07:05:02.340Z,12.90
2023-05-02T07:07:29.614Z,13.00
2023-05-02T07:09:56.900Z,12.90
2023-05-02T07:12:24.229Z,13.10
2023-05-02T07:14:51.663Z,12.60
2023-05-02T07:17:19.606Z,13.30
2023-05-02T07:19:46.904Z,13.30
2023-05-02T07:22:14.245Z,13.40
2023-05-02T07:24:42.016Z,13.40
2023-05-02T07:27:10.065Z,13.40
2023-05-02T07:29:37.454Z,13.40
2023-05-02T07:32:06.212Z,13.30
2023-05-02T07:34:33.590Z,13.40
2023-05-02T07:37:00.986Z,13.50
2023-05-02T07:39:28.767Z,13.50
2023-05-02T07:41:56.627Z,13.50
2023-05-02T07:44:24.401Z,13.50
2023-05-02T07:46:52.961Z,13.60
2023-05-02T07:49:20.730Z,13.70
2023-05-02T07:51:48.170Z,13.80
2023-05-02T07:54:17.027Z,13.70
2023-05-02T07:56:45.274Z,13.70
2023-05-02T07:59:12.888Z,13.70
2023-05-02T08:01:41.625Z,13.70
2023-05-02T08:04:13.532Z,13.70
2023-05-02T08:06:41.098Z,13.70
2023-05-02T08:09:09.657Z,13.80
2023-05-02T08:11:37.179Z,13.70
2023-05-02T08:14:04.666Z,13.70
2023-05-02T08:16:32.147Z,13.60
2023-05-02T08:18:59.491Z,13.60
2023-05-02T08:21:27.688Z,13.60
2023-05-02T08:23:58.787Z,13.60
2023-05-02T08:26:26.948Z,13.60
2023-05-02T08:28:55.678Z,13.60
2023-05-02T08:31:23.046Z,13.60
2023-05-02T08:33:50.639Z,13.60
2023-05-02T08:36:18.735Z,13.60
2023-05-02T08:38:46.860Z,13.70
2023-05-02T08:41:17.420Z,13.60
2023-05-02T08:43:47.049Z,13.40
2023-05-02T08:46:16.192Z,13.50
2023-05-02T08:48:48.138Z,13.50
2023-05-02T08:51:17.021Z,13.50
2023-05-02T08:53:45.597Z,13.40
2023-05-02T08:56:13.416Z,13.40
2023-05-02T08:58:44.127Z,13.40
2023-05-02T09:01:17.902Z,13.50
2023-05-02T09:03:47.732Z,13.50
2023-05-02T09:06:23.291Z,13.50
2023-05-02T09:08:54.666Z,13.50
2023-05-02T09:11:22.293Z,13.60
2023-05-02T09:13:51.830Z,13.60
2023-05-02T09:16:25.433Z,13.60
2023-05-02T09:18:57.805Z,13.70
2023-05-02T09:21:35.011Z,13.70
2023-05-02T09:24:04.011Z,13.90
2023-05-02T09:26:34.500Z,13.90
2023-05-02T09:29:04.217Z,13.90
2023-05-02T09:34:14.363Z,14.00
2023-05-02T09:36:42.953Z,14.00
2023-05-02T09:39:11.965Z,14.00
2023-05-02T09:41:48.126Z,14.00
2023-05-02T10:07:02.757Z,14.10
2023-05-02T10:09:35.896Z,14.60
2023-05-02T10:12:05.309Z,14.60
2023-05-02T10:14:39.480Z,14.80
2023-05-02T10:17:21.487Z,14.80
2023-05-02T10:20:01.174Z,14.90
2023-05-02T10:22:28.915Z,14.80
2023-05-02T10:24:59.454Z,14.70
2023-05-02T10:27:27.219Z,14.70
2023-05-02T10:29:56.634Z,14.70
2023-05-02T10:32:27.668Z,14.70
2023-05-02T10:35:02.839Z,14.80
2023-05-02T10:37:33.621Z,15.20
2023-05-02T10:40:01.441Z,14.90
2023-05-02T10:42:29.863Z,14.90
2023-05-02T10:44:57.364Z,15.00
2023-05-02T10:47:27.231Z,15.00
2023-05-02T10:50:03.184Z,15.10
2023-05-02T10:52:30.745Z,15.10
2023-05-02T10:55:19.956Z,15.10
2023-05-02T10:58:02.462Z,15.20
2023-05-02T11:00:34.056Z,15.20
2023-05-02T11:03:02.365Z,15.10
2023-05-02T11:05:30.566Z,15.00
2023-05-02T11:08:17.182Z,14.90
2023-05-02T11:10:46.506Z,14.90
2023-05-02T11:13:14.162Z,14.90
2023-05-02T11:15:41.485Z,14.80
2023-05-02T11:18:15.956Z,14.80
2023-05-02T11:20:46.413Z,14.70
2023-05-02T11:23:16.908Z,14.70
2023-05-02T11:25:45.649Z,14.60
2023-05-02T11:28:34.649Z,14.60
2023-05-02T11:31:02.477Z,14.60
2023-05-02T11:33:29.875Z,14.70
2023-05-02T11:35:58.264Z,14.70
2023-05-02T11:38:27.582Z,14.90
2023-05-02T11:40:57.541Z,15.00
2023-05-02T11:43:28.238Z,15.20
2023-05-02T11:45:59.882Z,15.30
2023-05-02T11:48:28.032Z,15.30
2023-05-02T11:50:57.729Z,15.40
2023-05-02T11:53:28.123Z,15.40
2023-05-02T11:56:05.166Z,15.30
2023-05-02T11:58:34.123Z,15.30
2023-05-02T12:01:17.616Z,15.30
2023-05-02T12:03:45.854Z,15.20
2023-05-02T12:06:16.115Z,15.10
2023-05-02T12:08:45.184Z,15.10
2023-05-02T12:11:16.880Z,15.00
2023-05-02T12:13:50.122Z,15.00
2023-05-02T12:16:18.528Z,15.00
2023-05-02T12:18:47.259Z,15.00
2023-05-02T12:21:14.941Z,14.90
2023-05-02T12:23:42.662Z,15.00
2023-05-02T12:26:33.692Z,14.90
2023-05-02T12:29:03.968Z,14.70
2023-05-02T12:31:32.333Z,14.90
2023-05-02T12:34:01.399Z,14.80
2023-05-02T12:36:29.524Z,18.00
2023-05-02T12:38:59.672Z,14.70
2023-05-02T12:41:38.383Z,14.70
2023-05-02T12:44:08.076Z,14.70
2023-05-02T12:46:36.318Z,14.80
2023-05-02T12:49:12.388Z,14.70
2023-05-02T12:51:52.895Z,14.80
2023-05-02T12:54:23.307Z,14.90
2023-05-02T12:56:52.375Z,14.70
2023-05-02T12:59:28.400Z,14.80
2023-05-02T13:01:55.756Z,14.90
2023-05-02T13:04:33.824Z,14.90
2023-05-02T13:07:03.498Z,14.90
2023-05-02T13:09:33.242Z,14.80
2023-05-02T13:12:00.946Z,14.80
2023-05-02T13:14:28.244Z,14.80
2023-05-02T13:16:55.778Z,14.80
2023-05-02T13:19:23.143Z,14.80
2023-05-02T13:21:50.632Z,15.00
2023-05-02T13:24:17.968Z,14.80
2023-05-02T13:26:46.170Z,14.90
2023-05-02T13:29:13.460Z,15.10
2023-05-02T13:31:40.806Z,14.90
2023-05-02T13:34:08.416Z,14.90
2023-05-02T13:36:36.461Z,14.90
2023-05-02T13:39:04.507Z,14.90
2023-05-02T13:41:32.057Z,15.00
2023-05-02T13:43:59.380Z,15.10
2023-05-02T13:46:26.893Z,15.10
2023-05-02T13:48:54.244Z,15.20
2023-05-02T13:51:21.669Z,15.30
2023-05-02T13:53:48.967Z,15.30
2023-05-02T13:56:16.556Z,15.30
2023-05-02T13:58:44.828Z,15.40
2023-05-02T14:01:12.108Z,15.50
2023-05-02T14:03:41.132Z,15.50
2023-05-02T14:06:08.966Z,16.10
2023-05-02T14:08:41.350Z,15.60
2023-05-02T14:11:08.845Z,15.50
2023-05-02T14:13:36.334Z,15.50
2023-05-02T14:16:03.926Z,15.50
2023-05-02T14:18:31.526Z,15.40
2023-05-02T14:21:00.224Z,15.40
2023-05-02T14:23:30.620Z,15.50
2023-05-02T14:25:58.282Z,15.60
2023-05-02T14:28:27.181Z,15.70
2023-05-02T14:30:58.609Z,15.70
2023-05-02T14:33:26.875Z,15.90
2023-05-02T14:35:55.622Z,15.90
2023-05-02T14:38:25.546Z,15.90
2023-05-02T14:40:52.886Z,16.00
2023-05-02T14:43:20.467Z,16.10
2023-05-02T14:45:48.146Z,16.20
2023-05-02T14:48:17.468Z,16.30
2023-05-02T14:50:45.280Z,16.40
2023-05-02T14:53:13.152Z,16.40
2023-05-02T14:55:40.727Z,16.40
2023-05-02T14:58:10.249Z,16.50
2023-05-02T15:00:41.344Z,16.50
2023-05-02T15:03:09.972Z,16.50
2023-05-02T15:05:37.747Z,16.60
2023-05-02T15:08:05.826Z,16.60
2023-05-02T15:10:37.627Z,16.70
2023-05-02T15:13:06.070Z,16.60
2023-05-02T15:15:33.607Z,16.60
2023-05-02T15:18:01.086Z,16.60
2023-05-02T15:20:28.507Z,16.80
2023-05-02T15:22:55.917Z,16.50
2023-05-02T15:25:23.302Z,16.50
2023-05-02T15:27:50.613Z,16.50
2023-05-02T15:30:18.259Z,16.40
2023-05-02T15:32:45.786Z,16.30
2023-05-02T15:35:14.508Z,16.20
2023-05-02T15:37:42.091Z,16.20
2023-05-02T15:40:10.840Z,16.30
2023-05-02T15:42:38.562Z,16.20
2023-05-02T15:45:06.748Z,16.20
2023-05-02T15:47:34.295Z,16.20
2023-05-02T15:50:02.385Z,16.10
2023-05-02T15:52:30.684Z,16.10
2023-05-02T15:54:59.491Z,16.10
2023-05-02T15:57:27.731Z,16.10
2023-05-02T15:59:55.297Z,16.20
2023-05-02T16:02:22.803Z,16.20
2023-05-02T16:04:50.289Z,16.10
2023-05-02T16:07:17.656Z,16.10
2023-05-02T16:09:45.261Z,16.00
2023-05-02T16:12:12.914Z,16.00
2023-05-02T16:14:40.358Z,16.00
2023-05-02T16:17:07.746Z,15.90
2023-05-02T16:19:35.101Z,15.70
2023-05-02T16:22:02.444Z,15.70
2023-05-02T16:24:30.238Z,15.60
2023-05-02T16:26:57.666Z,15.60
2023-05-02T16:29:26.122Z,15.50
2023-05-02T16:31:53.574Z,15.50
2023-05-02T16:34:21.149Z,15.50
2023-05-02T16:36:49.140Z,15.60
2023-05-02T16:39:16.617Z,15.50
2023-05-02T16:41:45.485Z,15.60
2023-05-02T16:44:12.839Z,15.60
2023-05-02T16:46:41.598Z,15.60
2023-05-02T16:49:08.993Z,15.50
2023-05-02T16:51:36.557Z,15.40
2023-05-02T16:54:04.357Z,15.40
2023-05-02T16:56:31.673Z,15.30
2023-05-02T16:58:59.122Z,15.60
2023-05-02T17:01:26.553Z,15.30
2023-05-02T17:03:53.909Z,15.30
2023-05-02T17:06:21.427Z,15.20
2023-05-02T17:08:49.091Z,15.10
2023-05-02T17:11:17.682Z,15.10
2023-05-02T17:13:47.269Z,15.10
2023-05-02T17:16:14.814Z,15.30
2023-05-02T17:18:42.239Z,15.00
2023-05-02T17:21:09.979Z,14.90
2023-05-02T17:23:38.126Z,14.80
2023-05-02T17:26:14.212Z,14.80
2023-05-02T17:28:43.774Z,14.80
2023-05-02T17:31:12.033Z,14.80
2023-05-02T17:33:39.792Z,14.70
2023-05-02T17:36:07.500Z,14.70
2023-05-02T17:38:35.072Z,14.60
2023-05-02T17:41:02.565Z,14.60
2023-05-02T17:43:30.272Z,14.60
2023-05-02T17:45:57.671Z,14.40
2023-05-02T17:48:25.089Z,14.40
2023-05-02T17:50:53.681Z,14.10
2023-05-02T17:53:21.075Z,14.30
2023-05-02T17:55:48.398Z,14.30
2023-05-02T17:58:16.153Z,14.30
2023-05-02T18:00:43.879Z,14.30
2023-05-02T18:03:11.329Z,14.20
2023-05-02T18:05:39.870Z,14.20
2023-05-02T18:08:07.642Z,14.10
2023-05-02T18:10:38.856Z,14.10
2023-05-02T18:13:06.614Z,14.10
2023-05-02T18:15:33.982Z,14.00
2023-05-02T18:18:01.377Z,14.00
2023-05-02T18:20:28.797Z,13.90
2023-05-02T18:22:59.054Z,13.90
2023-05-02T18:25:26.752Z,13.90
2023-05-02T18:27:54.379Z,13.90
2023-05-02T18:30:21.743Z,13.90
2023-05-02T18:32:49.080Z,13.80
2023-05-02T18:35:16.543Z,13.80
2023-05-02T18:37:44.056Z,13.70
2023-05-02T18:40:12.735Z,13.60
2023-05-02T18:42:40.134Z,13.50
2023-05-02T18:45:07.884Z,13.40
2023-05-02T18:47:36.527Z,13.40
2023-05-02T18:50:05.141Z,13.30
2023-05-02T18:52:32.698Z,13.20
2023-05-02T18:55:02.228Z,13.10
2023-05-02T18:57:29.865Z,12.60
2023-05-02T18:59:57.746Z,13.00
2023-05-02T19:02:25.687Z,12.90
2023-05-02T19:04:53.265Z,12.80
2023-05-02T19:07:20.865Z,12.80
2023-05-02T19:09:49.288Z,12.70
2023-05-02T19:12:17.107Z,12.60
2023-05-02T19:14:45.050Z,12.60
2023-05-02T19:17:12.575Z,12.60
2023-05-02T19:19:40.177Z,12.50
2023-05-02T19:22:07.890Z,12.50
2023-05-02T19:24:36.325Z,11.50
2023-05-02T19:27:07.850Z,12.40
2023-05-02T19:29:35.435Z,12.30
2023-05-02T19:32:03.654Z,12.30
2023-05-02T19:34:31.968Z,12.30
2023-05-02T19:36:59.443Z,11.50
2023-05-02T19:39:27.005Z,12.20
2023-05-02T19:41:54.664Z,12.10
2023-05-02T19:44:23.756Z,12.10
2023-05-02T19:46:51.262Z,12.00
2023-05-02T19:49:19.718Z,12.00
2023-05-02T19:51:47.164Z,12.00
2023-05-02T19:54:14.640Z,12.70
2023-05-02T19:56:43.564Z,11.90
2023-05-02T20:03:14.670Z,11.80
2023-05-02T20:05:51.822Z,11.50
2023-05-02T20:08:19.543Z,11.80
2023-05-02T20:10:48.275Z,11.80
2023-05-02T20:13:16.059Z,11.70
2023-05-02T20:16:30.312Z,11.80
2023-05-02T20:18:58.292Z,11.80
2023-05-02T20:21:27.003Z,11.70
2023-05-02T20:23:54.775Z,11.70
2023-05-02T20:26:22.524Z,11.70
2023-05-02T20:28:50.073Z,11.70
2023-05-02T20:31:17.655Z,11.60
2023-05-02T20:33:46.133Z,11.60
2023-05-02T20:37:13.664Z,11.70
2023-05-02T20:39:42.567Z,11.60
2023-05-02T20:42:10.159Z,11.60
2023-05-02T20:44:37.946Z,11.60
2023-05-02T20:47:05.373Z,11.50
2023-05-02T20:49:33.213Z,11.50
2023-05-02T20:52:06.829Z,11.60
2023-05-02T20:54:34.728Z,11.50
2023-05-02T20:57:03.623Z,11.50
2023-05-02T20:59:32.023Z,11.50
2023-05-02T21:01:59.740Z,11.50
2023-05-02T21:04:27.215Z,11.50
2023-05-02T21:06:56.880Z,12.20
2023-05-02T21:09:24.900Z,11.30
2023-05-02T21:11:52.378Z,11.30
2023-05-02T21:14:20.247Z,11.30
2023-05-02T21:16:50.424Z,11.30
2023-05-02T21:23:43.253Z,11.30
2023-05-02T21:26:10.755Z,11.30
2023-05-02T21:28:38.720Z,11.20
2023-05-02T21:31:07.724Z,11.20
2023-05-02T21:33:35.813Z,11.20
2023-05-02T21:36:03.548Z,11.20
2023-05-02T21:38:32.471Z,11.10
2023-05-02T21:41:04.835Z,11.10
2023-05-02T21:43:35.717Z,11.10
2023-05-02T21:46:03.180Z,11.10
2023-05-02T21:48:30.876Z,11.10
2023-05-02T21:50:58.534Z,11.00
2023-05-02T21:53:27.266Z,11.00
2023-05-02T21:55:55.461Z,11.00
2023-05-02T21:58:25.318Z,10.90
2023-05-02T22:00:52.705Z,11.00
2023-05-02T22:03:20.381Z,10.90
2023-05-02T22:05:50.151Z,10.90
2023-05-02T22:08:17.825Z,10.80
2023-05-02T22:10:46.710Z,10.80
2023-05-02T22:13:15.727Z,10.80
2023-05-02T22:15:45.722Z,10.70
2023-05-02T22:18:17.348Z,10.70
2023-05-02T22:20:45.318Z,10.70
2023-05-02T22:23:13.126Z,10.70
2023-05-02T22:25:42.393Z,10.60
2023-05-02T22:28:12.124Z,10.60
2023-05-02T22:30:43.297Z,10.60
2023-05-02T22:33:10.699Z,10.60
2023-05-02T22:35:38.719Z,10.50
2023-05-02T22:38:09.091Z,10.30
2023-05-02T22:40:36.725Z,10.40
2023-05-02T22:43:04.784Z,10.40
2023-05-02T22:45:32.120Z,10.40
2023-05-02T22:47:59.577Z,10.30
2023-05-02T22:50:27.789Z,10.40
2023-05-02T22:52:58.804Z,10.50
2023-05-02T22:55:26.403Z,10.30
2023-05-02T22:57:53.853Z,10.30
2023-05-02T23:00:22.638Z,10.30
2023-05-02T23:02:50.762Z,10.20
2023-05-02T23:05:18.306Z,10.20
2023-05-02T23:07:45.950Z,10.20
2023-05-02T23:10:13.606Z,10.20
2023-05-02T23:12:42.090Z,10.20
2023-05-02T23:15:10.017Z,10.10
2023-05-02T23:17:43.902Z,10.20
2023-05-02T23:20:11.718Z,10.20
2023-05-02T23:22:46.075Z,10.10
2023-05-02T23:25:16.362Z,10.10
2023-05-02T23:27:43.954Z,10.20
2023-05-02T23:30:12.089Z,10.20
2023-05-02T23:32:40.720Z,10.20
2023-05-02T23:35:08.798Z,10.20
2023-05-02T23:37:36.771Z,10.10
2023-05-02T23:40:05.453Z,8.90
2023-05-02T23:42:34.535Z,10.00
2023-05-02T23:45:02.292Z,10.00
2023-05-02T23:47:29.869Z,10.00
2023-05-02T23:49:57.517Z,10.00
2023-05-02T23:52:25.220Z,10.00
2023-05-02T23:54:53.048Z,10.00
2023-05-02T23:57:20.585Z,10.20
2023-05-02T23:59:48.088Z,9.90
